sensor_id;sensor_type;location;lat;lon;timestamp;P1;durP1;ratioP1;P2;durP2;ratioP2
64252;SDS011;50592;52.958;-7.470;2023-10-13T00:06:43;11.00;;;3.35;;
64252;SDS011;50592;52.958;-7.470;2023-10-13T00:09:10;9.27;;;3.35;;
64252;SDS011;50592;52.958;-7.470;2023-10-13T00:11:43;10.18;;;3.80;;
64252;SDS011;50592;52.958;-7.470;2023-10-13T00:14:13;12.48;;;3.20;;
64252;SDS011;50592;52.958;-7.470;2023-10-13T00:16:43;7.70;;;3.38;;
64252;SDS011;50592;52.958;-7.470;2023-10-13T00:20:35;12.70;;;4.05;;
64252;SDS011;50592;52.958;-7.470;2023-10-13T00:23:44;6.40;;;3.25;;
64252;SDS011;50592;52.958;-7.470;2023-10-13T00:26:52;14.20;;;3.30;;
64252;SDS011;50592;52.958;-7.470;2023-10-13T00:32:59;8.77;;;2.28;;
64252;SDS011;50592;52.958;-7.470;2023-10-13T00:39:04;10.52;;;3.55;;
64252;SDS011;50592;52.958;-7.470;2023-10-13T00:42:27;13.55;;;2.78;;
64252;SDS011;50592;52.958;-7.470;2023-10-13T00:45:13;8.70;;;2.53;;
64252;SDS011;50592;52.958;-7.470;2023-10-13T00:47:54;18.83;;;3.35;;
64252;SDS011;50592;52.958;-7.470;2023-10-13T00:54:12;12.90;;;2.80;;
64252;SDS011;50592;52.958;-7.470;2023-10-13T00:56:47;11.70;;;3.28;;
64252;SDS011;50592;52.958;-7.470;2023-10-13T00:59:48;17.85;;;3.47;;
64252;SDS011;50592;52.958;-7.470;2023-10-13T01:02:14;12.63;;;3.05;;
64252;SDS011;50592;52.958;-7.470;2023-10-13T01:05:21;14.27;;;3.40;;
64252;SDS011;50592;52.958;-7.470;2023-10-13T01:08:49;13.30;;;3.40;;
64252;SDS011;50592;52.958;-7.470;2023-10-13T01:14:17;9.52;;;3.13;;
64252;SDS011;50592;52.958;-7.470;2023-10-13T01:24:38;12.77;;;3.63;;
64252;SDS011;50592;52.958;-7.470;2023-10-13T01:28:12;15.23;;;3.67;;
64252;SDS011;50592;52.958;-7.470;2023-10-13T01:30:55;24.58;;;4.20;;
64252;SDS011;50592;52.958;-7.470;2023-10-13T01:33:28;17.30;;;3.70;;
64252;SDS011;50592;52.958;-7.470;2023-10-13T01:40:20;16.52;;;4.00;;
64252;SDS011;50592;52.958;-7.470;2023-10-13T01:46:34;14.80;;;3.45;;
64252;SDS011;50592;52.958;-7.470;2023-10-13T01:49:53;21.58;;;4.15;;
64252;SDS011;50592;52.958;-7.470;2023-10-13T01:53:07;17.53;;;3.43;;
64252;SDS011;50592;52.958;-7.470;2023-10-13T01:56:36;11.65;;;3.40;;
64252;SDS011;50592;52.958;-7.470;2023-10-13T02:08:09;18.80;;;3.85;;
64252;SDS011;50592;52.958;-7.470;2023-10-13T02:14:08;13.70;;;3.60;;
64252;SDS011;50592;52.958;-7.470;2023-10-13T02:16:55;8.77;;;3.55;;
64252;SDS011;50592;52.958;-7.470;2023-10-13T02:19:43;12.65;;;3.75;;
64252;SDS011;50592;52.958;-7.470;2023-10-13T02:22:14;11.52;;;3.75;;
64252;SDS011;50592;52.958;-7.470;2023-10-13T02:25:06;10.50;;;3.10;;
64252;SDS011;50592;52.958;-7.470;2023-10-13T02:27:34;11.63;;;3.40;;
64252;SDS011;50592;52.958;-7.470;2023-10-13T02:30:07;17.05;;;3.58;;
64252;SDS011;50592;52.958;-7.470;2023-10-13T02:32:40;7.20;;;3.38;;
64252;SDS011;50592;52.958;-7.470;2023-10-13T02:35:09;13.50;;;3.90;;
64252;SDS011;50592;52.958;-7.470;2023-10-13T02:37:45;11.95;;;3.50;;
64252;SDS011;50592;52.958;-7.470;2023-10-13T02:40:20;7.57;;;3.83;;
64252;SDS011;50592;52.958;-7.470;2023-10-13T02:42:49;12.38;;;3.90;;
64252;SDS011;50592;52.958;-7.470;2023-10-13T02:45:15;10.77;;;4.95;;
64252;SDS011;50592;52.958;-7.470;2023-10-13T02:47:43;7.97;;;3.97;;
64252;SDS011;50592;52.958;-7.470;2023-10-13T02:50:10;7.60;;;4.68;;
64252;SDS011;50592;52.958;-7.470;2023-10-13T02:52:38;8.63;;;4.78;;
64252;SDS011;50592;52.958;-7.470;2023-10-13T02:55:07;7.82;;;4.45;;
64252;SDS011;50592;52.958;-7.470;2023-10-13T02:57:39;8.48;;;4.63;;
64252;SDS011;50592;52.958;-7.470;2023-10-13T03:00:06;9.63;;;4.53;;
64252;SDS011;50592;52.958;-7.470;2023-10-13T03:02:43;7.53;;;5.00;;
64252;SDS011;50592;52.958;-7.470;2023-10-13T03:05:26;5.75;;;4.72;;
64252;SDS011;50592;52.958;-7.470;2023-10-13T03:08:07;8.32;;;5.15;;
64252;SDS011;50592;52.958;-7.470;2023-10-13T03:10:46;8.18;;;4.60;;
64252;SDS011;50592;52.958;-7.470;2023-10-13T03:13:14;8.13;;;5.53;;
64252;SDS011;50592;52.958;-7.470;2023-10-13T03:15:40;8.15;;;4.95;;
64252;SDS011;50592;52.958;-7.470;2023-10-13T03:18:06;9.98;;;5.70;;
64252;SDS011;50592;52.958;-7.470;2023-10-13T03:20:31;9.02;;;5.35;;
64252;SDS011;50592;52.958;-7.470;2023-10-13T03:22:58;7.90;;;6.25;;
64252;SDS011;50592;52.958;-7.470;2023-10-13T03:25:24;9.63;;;6.13;;
64252;SDS011;50592;52.958;-7.470;2023-10-13T03:28:10;10.25;;;6.00;;
64252;SDS011;50592;52.958;-7.470;2023-10-13T03:30:42;8.73;;;6.20;;
64252;SDS011;50592;52.958;-7.470;2023-10-13T03:33:09;7.53;;;5.80;;
64252;SDS011;50592;52.958;-7.470;2023-10-13T03:35:54;8.45;;;6.18;;
64252;SDS011;50592;52.958;-7.470;2023-10-13T03:38:30;14.40;;;6.90;;
64252;SDS011;50592;52.958;-7.470;2023-10-13T03:41:02;7.88;;;4.90;;
64252;SDS011;50592;52.958;-7.470;2023-10-13T03:43:38;6.07;;;3.85;;
64252;SDS011;50592;52.958;-7.470;2023-10-13T03:46:36;4.38;;;3.20;;
64252;SDS011;50592;52.958;-7.470;2023-10-13T03:49:07;2.97;;;2.78;;
64252;SDS011;50592;52.958;-7.470;2023-10-13T03:51:40;3.53;;;2.80;;
64252;SDS011;50592;52.958;-7.470;2023-10-13T03:54:06;3.58;;;2.35;;
64252;SDS011;50592;52.958;-7.470;2023-10-13T03:56:44;3.45;;;2.55;;
64252;SDS011;50592;52.958;-7.470;2023-10-13T03:59:23;5.35;;;2.47;;
64252;SDS011;50592;52.958;-7.470;2023-10-13T04:01:49;3.88;;;2.20;;
64252;SDS011;50592;52.958;-7.470;2023-10-13T04:04:24;2.03;;;1.33;;
64252;SDS011;50592;52.958;-7.470;2023-10-13T04:09:36;1.00;;;0.80;;
64252;SDS011;50592;52.958;-7.470;2023-10-13T04:12:03;1.25;;;0.60;;
64252;SDS011;50592;52.958;-7.470;2023-10-13T04:14:42;0.47;;;0.47;;
64252;SDS011;50592;52.958;-7.470;2023-10-13T04:17:18;1.83;;;0.40;;
64252;SDS011;50592;52.958;-7.470;2023-10-13T04:19:54;0.57;;;0.28;;
64252;SDS011;50592;52.958;-7.470;2023-10-13T04:22:37;0.38;;;0.28;;
64252;SDS011;50592;52.958;-7.470;2023-10-13T04:25:15;0.52;;;0.50;;
64252;SDS011;50592;52.958;-7.470;2023-10-13T04:28:21;0.52;;;0.30;;
64252;SDS011;50592;52.958;-7.470;2023-10-13T04:30:52;0.80;;;0.30;;
64252;SDS011;50592;52.958;-7.470;2023-10-13T04:33:31;0.77;;;0.32;;
64252;SDS011;50592;52.958;-7.470;2023-10-13T04:38:52;0.40;;;0.40;;
64252;SDS011;50592;52.958;-7.470;2023-10-13T04:41:26;0.30;;;0.20;;
64252;SDS011;50592;52.958;-7.470;2023-10-13T04:44:10;2.90;;;0.30;;
64252;SDS011;50592;52.958;-7.470;2023-10-13T04:46:57;0.20;;;0.20;;
64252;SDS011;50592;52.958;-7.470;2023-10-13T04:49:27;0.20;;;0.20;;
64252;SDS011;50592;52.958;-7.470;2023-10-13T04:52:00;0.30;;;0.20;;
64252;SDS011;50592;52.958;-7.470;2023-10-13T04:54:32;0.15;;;0.15;;
64252;SDS011;50592;52.958;-7.470;2023-10-13T04:57:13;0.35;;;0.20;;
64252;SDS011;50592;52.958;-7.470;2023-10-13T04:59:48;0.10;;;0.10;;
64252;SDS011;50592;52.958;-7.470;2023-10-13T05:02:39;1.27;;;0.20;;
64252;SDS011;50592;52.958;-7.470;2023-10-13T05:05:20;0.20;;;0.17;;
64252;SDS011;50592;52.958;-7.470;2023-10-13T05:07:51;0.13;;;0.13;;
64252;SDS011;50592;52.958;-7.470;2023-10-13T05:10:36;0.22;;;0.13;;
64252;SDS011;50592;52.958;-7.470;2023-10-13T05:13:21;0.08;;;0.03;;
64252;SDS011;50592;52.958;-7.470;2023-10-13T05:16:05;1.45;;;0.00;;
64252;SDS011;50592;52.958;-7.470;2023-10-13T05:18:49;1.38;;;0.10;;
64252;SDS011;50592;52.958;-7.470;2023-10-13T05:21:33;0.17;;;0.10;;
64252;SDS011;50592;52.958;-7.470;2023-10-13T05:24:18;0.10;;;0.00;;
64252;SDS011;50592;52.958;-7.470;2023-10-13T05:27:03;1.23;;;0.10;;
64252;SDS011;50592;52.958;-7.470;2023-10-13T05:30:04;1.80;;;0.10;;
64252;SDS011;50592;52.958;-7.470;2023-10-13T05:32:48;2.08;;;0.22;;
64252;SDS011;50592;52.958;-7.470;2023-10-13T05:35:33;0.30;;;0.00;;
64252;SDS011;50592;52.958;-7.470;2023-10-13T05:38:34;0.20;;;0.20;;
64252;SDS011;50592;52.958;-7.470;2023-10-13T05:41:18;0.70;;;0.20;;
64252;SDS011;50592;52.958;-7.470;2023-10-13T05:44:02;0.95;;;0.10;;
64252;SDS011;50592;52.958;-7.470;2023-10-13T05:46:47;1.58;;;0.20;;
64252;SDS011;50592;52.958;-7.470;2023-10-13T05:49:26;0.45;;;0.10;;
64252;SDS011;50592;52.958;-7.470;2023-10-13T05:52:10;0.20;;;0.20;;
64252;SDS011;50592;52.958;-7.470;2023-10-13T05:54:45;0.47;;;0.10;;
64252;SDS011;50592;52.958;-7.470;2023-10-13T05:57:30;1.88;;;0.30;;
64252;SDS011;50592;52.958;-7.470;2023-10-13T06:00:15;0.15;;;0.10;;
64252;SDS011;50592;52.958;-7.470;2023-10-13T06:02:59;0.93;;;0.20;;
64252;SDS011;50592;52.958;-7.470;2023-10-13T06:05:44;0.20;;;0.10;;
64252;SDS011;50592;52.958;-7.470;2023-10-13T06:08:28;3.05;;;0.10;;
64252;SDS011;50592;52.958;-7.470;2023-10-13T06:11:12;0.70;;;0.10;;
64252;SDS011;50592;52.958;-7.470;2023-10-13T06:13:56;0.10;;;0.10;;
64252;SDS011;50592;52.958;-7.470;2023-10-13T06:16:41;0.45;;;0.15;;
64252;SDS011;50592;52.958;-7.470;2023-10-13T06:19:25;1.50;;;0.20;;
64252;SDS011;50592;52.958;-7.470;2023-10-13T06:22:09;1.63;;;0.10;;
64252;SDS011;50592;52.958;-7.470;2023-10-13T06:24:53;4.05;;;0.40;;
64252;SDS011;50592;52.958;-7.470;2023-10-13T06:27:38;3.03;;;0.20;;
64252;SDS011;50592;52.958;-7.470;2023-10-13T06:30:22;1.17;;;0.30;;
64252;SDS011;50592;52.958;-7.470;2023-10-13T06:32:47;3.30;;;0.40;;
64252;SDS011;50592;52.958;-7.470;2023-10-13T06:35:16;2.35;;;0.20;;
64252;SDS011;50592;52.958;-7.470;2023-10-13T06:37:48;2.05;;;0.30;;
64252;SDS011;50592;52.958;-7.470;2023-10-13T06:40:14;0.43;;;0.10;;
64252;SDS011;50592;52.958;-7.470;2023-10-13T06:42:59;1.27;;;0.20;;
64252;SDS011;50592;52.958;-7.470;2023-10-13T06:45:39;4.72;;;0.20;;
64252;SDS011;50592;52.958;-7.470;2023-10-13T06:48:05;3.33;;;0.70;;
64252;SDS011;50592;52.958;-7.470;2023-10-13T06:50:31;2.63;;;0.30;;
64252;SDS011;50592;52.958;-7.470;2023-10-13T06:53:04;0.35;;;0.20;;
64252;SDS011;50592;52.958;-7.470;2023-10-13T06:55:30;0.68;;;0.52;;
64252;SDS011;50592;52.958;-7.470;2023-10-13T06:58:03;0.93;;;0.30;;
64252;SDS011;50592;52.958;-7.470;2023-10-13T07:00:32;2.75;;;0.22;;
64252;SDS011;50592;52.958;-7.470;2023-10-13T07:03:06;2.95;;;0.43;;
64252;SDS011;50592;52.958;-7.470;2023-10-13T07:05:41;1.08;;;0.25;;
64252;SDS011;50592;52.958;-7.470;2023-10-13T07:08:08;2.67;;;0.50;;
64252;SDS011;50592;52.958;-7.470;2023-10-13T07:10:35;2.17;;;0.35;;
64252;SDS011;50592;52.958;-7.470;2023-10-13T07:13:13;0.65;;;0.20;;
64252;SDS011;50592;52.958;-7.470;2023-10-13T07:15:48;1.40;;;0.30;;
64252;SDS011;50592;52.958;-7.470;2023-10-13T07:18:14;0.95;;;0.22;;
64252;SDS011;50592;52.958;-7.470;2023-10-13T07:20:42;1.65;;;0.22;;
64252;SDS011;50592;52.958;-7.470;2023-10-13T07:23:16;2.03;;;0.50;;
64252;SDS011;50592;52.958;-7.470;2023-10-13T07:25:50;0.77;;;0.20;;
64252;SDS011;50592;52.958;-7.470;2023-10-13T07:28:19;2.20;;;0.20;;
64252;SDS011;50592;52.958;-7.470;2023-10-13T07:30:47;2.33;;;0.22;;
64252;SDS011;50592;52.958;-7.470;2023-10-13T07:33:22;0.20;;;0.13;;
64252;SDS011;50592;52.958;-7.470;2023-10-13T07:38:54;0.57;;;0.13;;
64252;SDS011;50592;52.958;-7.470;2023-10-13T07:41:51;0.82;;;0.22;;
64252;SDS011;50592;52.958;-7.470;2023-10-13T07:44:43;7.55;;;0.32;;
64252;SDS011;50592;52.958;-7.470;2023-10-13T07:47:15;2.83;;;0.45;;
64252;SDS011;50592;52.958;-7.470;2023-10-13T07:49:43;3.83;;;0.45;;
64252;SDS011;50592;52.958;-7.470;2023-10-13T07:52:10;5.82;;;0.68;;
64252;SDS011;50592;52.958;-7.470;2023-10-13T07:55:07;4.25;;;0.68;;
64252;SDS011;50592;52.958;-7.470;2023-10-13T07:57:44;4.47;;;1.10;;
64252;SDS011;50592;52.958;-7.470;2023-10-13T08:00:35;5.00;;;1.05;;
64252;SDS011;50592;52.958;-7.470;2023-10-13T08:03:13;2.40;;;0.50;;
64252;SDS011;50592;52.958;-7.470;2023-10-13T08:05:42;2.17;;;0.50;;
64252;SDS011;50592;52.958;-7.470;2023-10-13T08:08:26;4.78;;;0.68;;
64252;SDS011;50592;52.958;-7.470;2023-10-13T08:11:07;3.58;;;0.50;;
64252;SDS011;50592;52.958;-7.470;2023-10-13T08:14:02;3.33;;;0.40;;
64252;SDS011;50592;52.958;-7.470;2023-10-13T08:16:41;5.75;;;0.80;;
64252;SDS011;50592;52.958;-7.470;2023-10-13T08:19:17;6.43;;;0.88;;
64252;SDS011;50592;52.958;-7.470;2023-10-13T08:21:45;3.30;;;0.80;;
64252;SDS011;50592;52.958;-7.470;2023-10-13T08:24:45;4.25;;;0.80;;
64252;SDS011;50592;52.958;-7.470;2023-10-13T08:27:13;3.65;;;0.95;;
64252;SDS011;50592;52.958;-7.470;2023-10-13T08:29:44;2.50;;;0.60;;
64252;SDS011;50592;52.958;-7.470;2023-10-13T08:32:35;6.40;;;0.77;;
64252;SDS011;50592;52.958;-7.470;2023-10-13T08:35:23;7.05;;;0.73;;
64252;SDS011;50592;52.958;-7.470;2023-10-13T08:38:00;3.55;;;0.60;;
64252;SDS011;50592;52.958;-7.470;2023-10-13T08:40:30;5.60;;;0.80;;
64252;SDS011;50592;52.958;-7.470;2023-10-13T08:43:31;4.28;;;0.43;;
64252;SDS011;50592;52.958;-7.470;2023-10-13T08:46:09;4.72;;;0.77;;
64252;SDS011;50592;52.958;-7.470;2023-10-13T08:48:35;2.22;;;0.55;;
64252;SDS011;50592;52.958;-7.470;2023-10-13T08:51:22;4.85;;;0.47;;
64252;SDS011;50592;52.958;-7.470;2023-10-13T09:02:16;6.18;;;0.98;;
64252;SDS011;50592;52.958;-7.470;2023-10-13T09:08:09;10.73;;;1.40;;
64252;SDS011;50592;52.958;-7.470;2023-10-13T09:11:00;15.43;;;1.90;;
64252;SDS011;50592;52.958;-7.470;2023-10-13T09:13:39;9.85;;;1.60;;
64252;SDS011;50592;52.958;-7.470;2023-10-13T09:16:11;15.20;;;2.53;;
64252;SDS011;50592;52.958;-7.470;2023-10-13T09:18:47;18.35;;;3.65;;
64252;SDS011;50592;52.958;-7.470;2023-10-13T09:21:14;14.80;;;2.10;;
64252;SDS011;50592;52.958;-7.470;2023-10-13T09:23:59;13.38;;;2.17;;
64252;SDS011;50592;52.958;-7.470;2023-10-13T09:26:44;22.10;;;2.50;;
64252;SDS011;50592;52.958;-7.470;2023-10-13T09:29:17;18.42;;;2.70;;
64252;SDS011;50592;52.958;-7.470;2023-10-13T09:31:44;14.82;;;2.65;;
64252;SDS011;50592;52.958;-7.470;2023-10-13T09:34:20;10.35;;;1.85;;
64252;SDS011;50592;52.958;-7.470;2023-10-13T09:36:48;14.23;;;3.00;;
64252;SDS011;50592;52.958;-7.470;2023-10-13T09:39:22;13.52;;;2.53;;
64252;SDS011;50592;52.958;-7.470;2023-10-13T09:42:00;18.67;;;2.45;;
64252;SDS011;50592;52.958;-7.470;2023-10-13T09:44:26;20.85;;;4.07;;
64252;SDS011;50592;52.958;-7.470;2023-10-13T09:47:00;24.90;;;3.10;;
64252;SDS011;50592;52.958;-7.470;2023-10-13T09:49:33;18.25;;;3.33;;
64252;SDS011;50592;52.958;-7.470;2023-10-13T09:52:19;13.82;;;2.72;;
64252;SDS011;50592;52.958;-7.470;2023-10-13T09:54:55;23.60;;;3.60;;
64252;SDS011;50592;52.958;-7.470;2023-10-13T09:57:32;15.50;;;2.10;;
64252;SDS011;50592;52.958;-7.470;2023-10-13T10:03:00;23.15;;;3.70;;
64252;SDS011;50592;52.958;-7.470;2023-10-13T10:05:40;14.43;;;2.40;;
64252;SDS011;50592;52.958;-7.470;2023-10-13T10:08:07;26.60;;;4.20;;
64252;SDS011;50592;52.958;-7.470;2023-10-13T10:10:56;15.25;;;2.55;;
64252;SDS011;50592;52.958;-7.470;2023-10-13T10:13:27;19.00;;;2.75;;
64252;SDS011;50592;52.958;-7.470;2023-10-13T10:16:02;21.73;;;3.70;;
64252;SDS011;50592;52.958;-7.470;2023-10-13T10:18:45;16.17;;;3.67;;
64252;SDS011;50592;52.958;-7.470;2023-10-13T10:21:11;13.20;;;2.70;;
64252;SDS011;50592;52.958;-7.470;2023-10-13T10:23:40;14.05;;;3.00;;
64252;SDS011;50592;52.958;-7.470;2023-10-13T10:26:10;15.52;;;2.50;;
64252;SDS011;50592;52.958;-7.470;2023-10-13T10:28:41;14.80;;;2.80;;
64252;SDS011;50592;52.958;-7.470;2023-10-13T10:31:08;14.55;;;2.13;;
64252;SDS011;50592;52.958;-7.470;2023-10-13T10:33:38;15.45;;;2.35;;
64252;SDS011;50592;52.958;-7.470;2023-10-13T10:36:04;20.42;;;2.55;;
64252;SDS011;50592;52.958;-7.470;2023-10-13T10:38:31;17.23;;;2.75;;
64252;SDS011;50592;52.958;-7.470;2023-10-13T10:41:04;20.08;;;2.90;;
64252;SDS011;50592;52.958;-7.470;2023-10-13T10:46:12;11.18;;;2.40;;
64252;SDS011;50592;52.958;-7.470;2023-10-13T10:48:39;16.08;;;2.97;;
64252;SDS011;50592;52.958;-7.470;2023-10-13T10:51:12;12.50;;;2.28;;
64252;SDS011;50592;52.958;-7.470;2023-10-13T10:53:40;19.13;;;2.35;;
64252;SDS011;50592;52.958;-7.470;2023-10-13T10:56:12;15.35;;;2.15;;
64252;SDS011;50592;52.958;-7.470;2023-10-13T10:58:55;15.05;;;2.92;;
64252;SDS011;50592;52.958;-7.470;2023-10-13T11:01:25;16.55;;;2.67;;
64252;SDS011;50592;52.958;-7.470;2023-10-13T11:04:06;11.70;;;2.28;;
64252;SDS011;50592;52.958;-7.470;2023-10-13T11:06:49;14.15;;;2.70;;
64252;SDS011;50592;52.958;-7.470;2023-10-13T11:09:30;10.88;;;1.90;;
64252;SDS011;50592;52.958;-7.470;2023-10-13T11:14:29;12.23;;;2.70;;
64252;SDS011;50592;52.958;-7.470;2023-10-13T11:16:56;13.70;;;2.72;;
64252;SDS011;50592;52.958;-7.470;2023-10-13T11:19:36;13.00;;;3.10;;
64252;SDS011;50592;52.958;-7.470;2023-10-13T11:22:36;16.13;;;2.70;;
64252;SDS011;50592;52.958;-7.470;2023-10-13T11:25:06;12.57;;;1.70;;
64252;SDS011;50592;52.958;-7.470;2023-10-13T11:27:40;10.93;;;2.05;;
64252;SDS011;50592;52.958;-7.470;2023-10-13T11:30:20;11.18;;;1.80;;
64252;SDS011;50592;52.958;-7.470;2023-10-13T11:33:06;6.43;;;1.70;;
64252;SDS011;50592;52.958;-7.470;2023-10-13T11:35:39;10.25;;;2.08;;
64252;SDS011;50592;52.958;-7.470;2023-10-13T11:38:36;8.65;;;1.60;;
64252;SDS011;50592;52.958;-7.470;2023-10-13T11:41:10;6.10;;;1.58;;
64252;SDS011;50592;52.958;-7.470;2023-10-13T11:43:56;8.68;;;1.90;;
64252;SDS011;50592;52.958;-7.470;2023-10-13T11:46:52;7.50;;;1.25;;
64252;SDS011;50592;52.958;-7.470;2023-10-13T11:49:50;11.30;;;2.33;;
64252;SDS011;50592;52.958;-7.470;2023-10-13T11:52:23;10.13;;;1.77;;
64252;SDS011;50592;52.958;-7.470;2023-10-13T11:55:00;11.60;;;1.88;;
64252;SDS011;50592;52.958;-7.470;2023-10-13T11:57:34;14.82;;;2.13;;
64252;SDS011;50592;52.958;-7.470;2023-10-13T12:00:08;7.68;;;2.35;;
64252;SDS011;50592;52.958;-7.470;2023-10-13T12:03:13;10.77;;;2.13;;
64252;SDS011;50592;52.958;-7.470;2023-10-13T12:06:02;6.78;;;1.25;;
64252;SDS011;50592;52.958;-7.470;2023-10-13T12:08:59;12.15;;;1.88;;
64252;SDS011;50592;52.958;-7.470;2023-10-13T12:11:56;9.55;;;1.63;;
64252;SDS011;50592;52.958;-7.470;2023-10-13T12:14:34;12.00;;;2.13;;
64252;SDS011;50592;52.958;-7.470;2023-10-13T12:17:23;9.55;;;1.98;;
64252;SDS011;50592;52.958;-7.470;2023-10-13T12:20:09;12.32;;;2.53;;
64252;SDS011;50592;52.958;-7.470;2023-10-13T12:22:53;9.50;;;2.00;;
64252;SDS011;50592;52.958;-7.470;2023-10-13T12:26:02;8.52;;;1.40;;
64252;SDS011;50592;52.958;-7.470;2023-10-13T12:28:47;11.65;;;2.28;;
64252;SDS011;50592;52.958;-7.470;2023-10-13T12:31:23;10.10;;;1.98;;
64252;SDS011;50592;52.958;-7.470;2023-10-13T12:34:03;6.78;;;1.55;;
64252;SDS011;50592;52.958;-7.470;2023-10-13T12:36:37;11.55;;;1.70;;
64252;SDS011;50592;52.958;-7.470;2023-10-13T12:39:50;11.85;;;1.30;;
64252;SDS011;50592;52.958;-7.470;2023-10-13T12:43:17;5.55;;;1.10;;
64252;SDS011;50592;52.958;-7.470;2023-10-13T12:46:11;7.32;;;1.17;;
64252;SDS011;50592;52.958;-7.470;2023-10-13T12:49:21;10.82;;;2.17;;
64252;SDS011;50592;52.958;-7.470;2023-10-13T12:52:36;12.55;;;1.60;;
64252;SDS011;50592;52.958;-7.470;2023-10-13T12:55:46;8.25;;;2.33;;
64252;SDS011;50592;52.958;-7.470;2023-10-13T12:58:14;16.83;;;1.80;;
64252;SDS011;50592;52.958;-7.470;2023-10-13T13:01:02;10.15;;;1.67;;
64252;SDS011;50592;52.958;-7.470;2023-10-13T13:03:40;9.60;;;1.85;;
64252;SDS011;50592;52.958;-7.470;2023-10-13T13:06:30;12.38;;;1.73;;
64252;SDS011;50592;52.958;-7.470;2023-10-13T13:09:42;13.43;;;1.77;;
64252;SDS011;50592;52.958;-7.470;2023-10-13T13:12:19;8.15;;;1.40;;
64252;SDS011;50592;52.958;-7.470;2023-10-13T13:15:31;10.32;;;1.85;;
64252;SDS011;50592;52.958;-7.470;2023-10-13T13:17:57;12.75;;;1.77;;
64252;SDS011;50592;52.958;-7.470;2023-10-13T13:20:43;11.88;;;1.80;;
64252;SDS011;50592;52.958;-7.470;2023-10-13T13:23:47;11.75;;;1.48;;
64252;SDS011;50592;52.958;-7.470;2023-10-13T13:26:17;6.68;;;1.23;;
64252;SDS011;50592;52.958;-7.470;2023-10-13T13:28:49;5.65;;;1.45;;
64252;SDS011;50592;52.958;-7.470;2023-10-13T13:31:16;8.85;;;1.50;;
64252;SDS011;50592;52.958;-7.470;2023-10-13T13:34:03;11.98;;;2.25;;
64252;SDS011;50592;52.958;-7.470;2023-10-13T13:36:38;12.80;;;2.28;;
64252;SDS011;50592;52.958;-7.470;2023-10-13T13:39:09;13.88;;;1.80;;
64252;SDS011;50592;52.958;-7.470;2023-10-13T13:41:44;11.95;;;1.92;;
64252;SDS011;50592;52.958;-7.470;2023-10-13T13:44:10;8.13;;;1.40;;
64252;SDS011;50592;52.958;-7.470;2023-10-13T13:46:38;8.57;;;1.75;;
64252;SDS011;50592;52.958;-7.470;2023-10-13T13:49:08;8.73;;;1.73;;
64252;SDS011;50592;52.958;-7.470;2023-10-13T13:51:46;12.18;;;1.95;;
64252;SDS011;50592;52.958;-7.470;2023-10-13T13:54:18;10.75;;;3.45;;
64252;SDS011;50592;52.958;-7.470;2023-10-13T13:56:45;16.50;;;5.72;;
64252;SDS011;50592;52.958;-7.470;2023-10-13T13:59:11;10.05;;;1.70;;
64252;SDS011;50592;52.958;-7.470;2023-10-13T14:01:41;32.42;;;12.98;;
64252;SDS011;50592;52.958;-7.470;2023-10-13T14:04:09;29.83;;;12.45;;
64252;SDS011;50592;52.958;-7.470;2023-10-13T14:06:36;24.20;;;9.65;;
64252;SDS011;50592;52.958;-7.470;2023-10-13T14:09:03;13.88;;;3.47;;
64252;SDS011;50592;52.958;-7.470;2023-10-13T14:11:40;25.98;;;7.28;;
64252;SDS011;50592;52.958;-7.470;2023-10-13T14:14:27;19.33;;;6.03;;
64252;SDS011;50592;52.958;-7.470;2023-10-13T14:16:53;15.75;;;4.28;;
64252;SDS011;50592;52.958;-7.470;2023-10-13T14:19:19;19.83;;;6.70;;
64252;SDS011;50592;52.958;-7.470;2023-10-13T14:21:58;19.80;;;3.92;;
64252;SDS011;50592;52.958;-7.470;2023-10-13T14:24:25;17.50;;;5.72;;
64252;SDS011;50592;52.958;-7.470;2023-10-13T14:26:58;16.90;;;3.60;;
64252;SDS011;50592;52.958;-7.470;2023-10-13T14:29:38;15.23;;;3.53;;
64252;SDS011;50592;52.958;-7.470;2023-10-13T14:32:11;17.05;;;2.28;;
64252;SDS011;50592;52.958;-7.470;2023-10-13T14:34:43;6.53;;;1.65;;
64252;SDS011;50592;52.958;-7.470;2023-10-13T14:37:09;14.82;;;2.50;;
64252;SDS011;50592;52.958;-7.470;2023-10-13T14:39:41;15.52;;;2.75;;
64252;SDS011;50592;52.958;-7.470;2023-10-13T14:42:07;12.27;;;3.75;;
64252;SDS011;50592;52.958;-7.470;2023-10-13T14:44:33;11.65;;;3.28;;
64252;SDS011;50592;52.958;-7.470;2023-10-13T14:47:00;14.32;;;4.25;;
64252;SDS011;50592;52.958;-7.470;2023-10-13T14:49:27;13.15;;;3.13;;
64252;SDS011;50592;52.958;-7.470;2023-10-13T14:51:57;10.05;;;2.08;;
64252;SDS011;50592;52.958;-7.470;2023-10-13T14:54:24;11.57;;;1.60;;
64252;SDS011;50592;52.958;-7.470;2023-10-13T14:56:58;12.70;;;2.40;;
64252;SDS011;50592;52.958;-7.470;2023-10-13T14:59:28;15.05;;;2.42;;
64252;SDS011;50592;52.958;-7.470;2023-10-13T15:02:05;9.90;;;1.88;;
64252;SDS011;50592;52.958;-7.470;2023-10-13T15:04:40;9.73;;;2.00;;
64252;SDS011;50592;52.958;-7.470;2023-10-13T15:07:16;12.43;;;2.22;;
64252;SDS011;50592;52.958;-7.470;2023-10-13T15:10:02;10.27;;;2.25;;
64252;SDS011;50592;52.958;-7.470;2023-10-13T15:12:31;8.25;;;1.67;;
64252;SDS011;50592;52.958;-7.470;2023-10-13T15:14:57;21.33;;;2.63;;
64252;SDS011;50592;52.958;-7.470;2023-10-13T15:17:25;10.10;;;2.17;;
64252;SDS011;50592;52.958;-7.470;2023-10-13T15:19:56;9.27;;;1.55;;
64252;SDS011;50592;52.958;-7.470;2023-10-13T15:22:27;8.52;;;1.70;;
64252;SDS011;50592;52.958;-7.470;2023-10-13T15:25:05;6.05;;;1.48;;
64252;SDS011;50592;52.958;-7.470;2023-10-13T15:31:01;7.18;;;1.55;;
64252;SDS011;50592;52.958;-7.470;2023-10-13T15:33:55;14.57;;;1.85;;
64252;SDS011;50592;52.958;-7.470;2023-10-13T15:36:37;15.40;;;1.98;;
64252;SDS011;50592;52.958;-7.470;2023-10-13T15:39:27;10.85;;;1.58;;
64252;SDS011;50592;52.958;-7.470;2023-10-13T15:41:59;12.10;;;2.17;;
64252;SDS011;50592;52.958;-7.470;2023-10-13T15:44:33;11.55;;;1.88;;
64252;SDS011;50592;52.958;-7.470;2023-10-13T15:47:11;7.63;;;2.67;;
64252;SDS011;50592;52.958;-7.470;2023-10-13T15:49:40;9.07;;;1.50;;
64252;SDS011;50592;52.958;-7.470;2023-10-13T15:52:08;9.45;;;2.15;;
64252;SDS011;50592;52.958;-7.470;2023-10-13T15:54:53;12.80;;;2.50;;
64252;SDS011;50592;52.958;-7.470;2023-10-13T15:57:26;10.32;;;1.60;;
64252;SDS011;50592;52.958;-7.470;2023-10-13T15:59:52;5.97;;;1.00;;
64252;SDS011;50592;52.958;-7.470;2023-10-13T16:02:23;8.15;;;1.30;;
64252;SDS011;50592;52.958;-7.470;2023-10-13T16:04:52;6.65;;;1.75;;
64252;SDS011;50592;52.958;-7.470;2023-10-13T16:07:35;10.57;;;2.10;;
64252;SDS011;50592;52.958;-7.470;2023-10-13T16:10:04;8.07;;;2.20;;
64252;SDS011;50592;52.958;-7.470;2023-10-13T16:12:37;13.23;;;2.67;;
64252;SDS011;50592;52.958;-7.470;2023-10-13T16:15:03;9.70;;;2.70;;
64252;SDS011;50592;52.958;-7.470;2023-10-13T16:17:33;14.80;;;2.85;;
64252;SDS011;50592;52.958;-7.470;2023-10-13T16:19:59;8.93;;;2.50;;
64252;SDS011;50592;52.958;-7.470;2023-10-13T16:22:24;8.98;;;2.30;;
64252;SDS011;50592;52.958;-7.470;2023-10-13T16:24:50;4.55;;;1.17;;
64252;SDS011;50592;52.958;-7.470;2023-10-13T16:27:17;7.57;;;1.48;;
64252;SDS011;50592;52.958;-7.470;2023-10-13T16:29:44;8.38;;;1.40;;
64252;SDS011;50592;52.958;-7.470;2023-10-13T16:32:10;10.40;;;1.48;;
64252;SDS011;50592;52.958;-7.470;2023-10-13T16:34:42;11.07;;;1.63;;
64252;SDS011;50592;52.958;-7.470;2023-10-13T16:37:28;11.35;;;1.42;;
64252;SDS011;50592;52.958;-7.470;2023-10-13T16:39:56;8.52;;;1.80;;
64252;SDS011;50592;52.958;-7.470;2023-10-13T16:42:33;9.02;;;1.30;;
64252;SDS011;50592;52.958;-7.470;2023-10-13T16:44:59;9.13;;;2.15;;
64252;SDS011;50592;52.958;-7.470;2023-10-13T16:47:49;10.73;;;3.83;;
64252;SDS011;50592;52.958;-7.470;2023-10-13T16:50:19;36.05;;;18.35;;
64252;SDS011;50592;52.958;-7.470;2023-10-13T16:52:46;9.88;;;3.00;;